Tiempo atmosférico en la estación meteorológica de Sardón De Duero, Valladolid (720 m.)



Fecha
DESCASC
Temp. máxima en grados centígrados (hora)
DESCASC
Temp. mínima en grados centígrados (hora)
DESCASC
Temp. media en grados centígrados
DESCASC
Racha de viento máxima en m/sg (hora)
DESCASC
Velocidad máxima media en intervalos de 10 minutos(hora)
DESCASC
Precipitaciones diarias en mm
DESCASC
Precipitaciones de 00:00 a 06:00 en mm
DESCASC
Precipitaciones de 06:00 a 12:00 en mm
DESCASC
Precipitaciones de 12:00 a 18:00 en mm
DESCASC
Precipitaciones de 18:00 a 24:00 en mm
DESCASC
24-09-2020 20.6 (17:10) 12.5 (08:20) 16.6 12.78 (18:30) 7.78 (15:20) 0.2 0 0.2 0 0
23-09-2020 22.6 (16:30) 10.8 (00:00) 16.7 8.61 (18:10) 5.56 (17:40) 2.2 0 2 0 0.2
22-09-2020 22.6 (16:50) 7.2 (00:00) 14.9 7.22 (14:50) 3.89 (14:40) 0 0 0 0 0
21-09-2020 23.5 (18:10) 9.2 (00:00) 16.3 4.72 (14:00) 2.5 (12:20) 0.2 0 0 0.2 0
20-09-2020 21.2 (17:00) 13.7 (00:00) 17.5 8.06 (14:40) 4.72 (14:50) 10.8 0 6.2 4.4 0.2
19-09-2020 19 (19:30) 12.8 (00:00) 15.9 14.72 (09:30) 8.61 (10:10) 10.8 0.8 6.2 2.8 1
18-09-2020 24 (15:50) 13.4 (00:00) 18.7 13.33 (18:20) 8.33 (18:20) 9.2 4 5 0 0.2
17-09-2020 28.7 (16:10) 16.2 (00:00) 22.5 18.33 (22:50) 9.72 (22:50) 0.8 0 0 0 0.8
16-09-2020 31 (14:50) 9 (07:30) 20 7.78 (16:50) 2.78 (13:50) 0 0 0 0 0
15-09-2020 28.5 (18:20) 11.5 (00:00) 20 8.89 (15:00) 4.17 (17:00) 2.8 2.8 0 0 0
14-09-2020 31.5 (17:30) 11.2 (00:00) 21.3 14.17 (23:30) 7.22 (23:40) 1.8 0 0 0 1.8
13-09-2020 35.2 (18:00) 9.8 (00:00) 22.5 7.5 (13:30) 5 (15:00) 0 0 0 0 0
12-09-2020 34.4 (17:30) 8.2 (07:50) 21.3 8.33 (13:30) 3.61 (13:20) 0 0 0 0 0
11-09-2020 31.7 (17:30) 8.2 (00:00) 20 5.83 (17:20) 2.78 (14:30) 0 0 0 0 0
10-09-2020 31 (17:50) 8.1 (00:00) 19.6 5.83 (16:50) 2.78 (16:20) 0 0 0 0 0
09-09-2020 30.5 (18:10) 5.2 (07:30) 17.8 6.94 (23:40) 3.33 (23:20) 0 0 0 0 0
08-09-2020 29.6 (16:50) 5.1 (00:00) 17.4 8.89 (16:40) 4.17 (13:30) 0 0 0 0 0
07-09-2020 24.9 (17:30) 9.9 (07:50) 17.4 10.83 (11:40) 5.28 (11:30) 0 0 0 0 0
06-09-2020 28 (16:40) 13.1 (00:00) 20.6 9.72 (23:40) 4.44 (22:40) 0 0 0 0 0
05-09-2020 34.9 (16:20) 8.8 (00:00) 21.9 9.44 (21:40) 5 (21:40) 0 0 0 0 0
04-09-2020 34.7 (17:00) 7.9 (00:00) 21.3 6.11 (16:30) 3.89 (16:30) 0 0 0 0 0
03-09-2020 33.1 (17:40) 5.5 (00:00) 19.3 5 (17:50) 2.5 (16:50) 0 0 0 0 0
02-09-2020 29.9 (17:40) 7.2 (00:00) 18.5 7.78 (00:20) 3.33 (00:20) 0 0 0 0 0
01-09-2020 30.2 (17:20) 8.9 (00:00) 19.6 8.61 (23:20) 5 (23:20) 0 0 0 0 0
31-08-2020 25.6 (19:20) 2.3 (00:00) 14 5.83 (16:00) 3.06 (16:00) 0 0 0 0 0
30-08-2020 21.7 (17:40) 2.3 (00:00) 12 6.11 (22:30) 2.78 (22:30) 0 0 0 0 0
29-08-2020 22.4 (15:40) 4.2 (00:00) 13.3 9.72 (15:30) 4.72 (16:00) 2 0 0 0 2
28-08-2020 28.5 (18:20) 13.7 (00:00) 21.1 9.17 (20:40) 5 (18:00) 0 0 0 0 0
27-08-2020 35 (17:40) 10.3 (00:00) 22.7 6.39 (15:40) 3.89 (18:30) 0 0 0 0 0
26-08-2020 35.5 (18:00) 9.6 (00:00) 22.6 6.11 (17:20) 3.33 (17:50) 0 0 0 0 0

Gráficas

Temp. máximas Temp. mínimas Temp. medias Precipitaciones Rachas de viento máximas Velocidades máximas media en intervalos de 10 minutos

Datos horarios

Fecha y hora oficial Temperatura (ºC) Velocidad del viento (km/h) Dirección del viento Racha (km/h) Dirección de racha Precipitación (mm) Presión (hPa) Tendencia (hPa) Humedad (%)
2020-09-24 23:00:00 13.2 15 Oeste 38 Oeste 0 -- -- 68
2020-09-24 22:00:00 14.4 18 Oeste 38 Oeste 0 -- -- 64
2020-09-24 21:00:00 15.5 16 Oeste 30 Sudoeste 0 -- -- 54
2020-09-24 20:00:00 16.7 18 Oeste 42 Oeste 0 -- -- 49
2020-09-24 19:00:00 18.6 26 Oeste 46 Oeste 0 -- -- 46
2020-09-24 18:00:00 19.9 25 Oeste 45 Sudoeste 0 -- -- 46
2020-09-24 17:00:00 19.9 24 Oeste 44 Sudoeste 0 -- -- 48
2020-09-24 16:00:00 19.9 26 Oeste 46 Oeste 0 -- -- 53
2020-09-24 15:00:00 19.2 24 Oeste 41 Oeste 0 -- -- 59
2020-09-24 14:00:00 18 20 Oeste 34 Oeste 0 -- -- 65
2020-09-24 13:00:00 17.5 15 Oeste 29 Sudoeste 0 -- -- 69
2020-09-24 12:00:00 16 17 Sudoeste 28 Oeste 0 -- -- 76
2020-09-24 11:00:00 14.7 15 Oeste 30 Oeste 0 -- -- 81
2020-09-24 10:00:00 13.6 14 Oeste 22 Oeste 0.2 -- -- 89
2020-09-24 09:00:00 12.8 10 Sudoeste 18 Oeste 0 -- -- 93
2020-09-24 08:00:00 12.7 8 Sudoeste 17 Oeste 0 -- -- 95
2020-09-24 07:00:00 13.2 8 Sudoeste 13 Sudoeste 0 -- -- 94
2020-09-24 06:00:00 13.3 5 Sudoeste 8 Sudoeste 0 -- -- 97
2020-09-24 05:00:00 13.7 5 Oeste 9 Oeste 0 -- -- 99
2020-09-24 04:00:00 13.8 3 Oeste 8 Sudoeste 0 -- -- 99
2020-09-24 03:00:00 13.7 6 Sudoeste 8 Sudoeste 0 -- -- 98
2020-09-24 02:00:00 13.7 4 Sudoeste 8 Sudoeste 0 -- -- 98
2020-09-24 01:00:00 14.3 4 Noroeste 13 Oeste 0 -- -- 96
2020-09-24 00:00:00 15.6 6 Oeste 12 Sudoeste 0 -- -- 92
2020-09-23 23:00:00 15.2 6 Noroeste 8 Noroeste 0 -- -- 94
2020-09-23 22:00:00 15.2 3 Oeste 18 Sudoeste 0 -- -- 92
2020-09-23 21:00:00 16.1 7 Sudoeste 12 Oeste 0 -- -- 90
2020-09-23 20:00:00 17.4 8 Sudoeste 20 Sudoeste 0 -- -- 88
2020-09-23 19:00:00 18.2 9 Sudoeste 31 Oeste 0.2 -- -- 86
2020-09-23 18:00:00 20.4 13 Oeste 30 Oeste 0 -- -- 68
2020-09-23 17:00:00 21.3 14 Oeste 27 Oeste 0 -- -- 64
2020-09-23 16:00:00 22 14 Oeste 25 Oeste 0 -- -- 61
2020-09-23 15:00:00 21.5 16 Oeste 27 Oeste 0 -- -- 66
2020-09-23 14:00:00 19.5 15 Oeste 27 Sudoeste 0 -- -- 73
2020-09-23 13:00:00 18 16 Oeste 27 Oeste 0 -- -- 84
2020-09-23 12:00:00 15.6 9 Oeste 16 Noroeste 1.2 -- -- 97
2020-09-23 11:00:00 15.8 3 Noroeste 13 Sudoeste 0 -- -- 95
2020-09-23 10:00:00 14.5 0 Calma 4 Noroeste 0.6 -- -- 99
2020-09-23 09:00:00 13.4 2 Noroeste 4 Noroeste 0.2 -- -- 99
2020-09-23 08:00:00 12.4 0 Calma 4 Este 0 -- -- 99
2020-09-23 07:00:00 12.4 0 Calma 3 Sur 0 -- -- 99
2020-09-23 06:00:00 11.8 0 Calma 3 Este 0 -- -- 99
2020-09-23 05:00:00 10.9 0 Calma 3 Nordeste 0 -- -- 98
2020-09-23 04:00:00 12.4 0 Calma 4 Nordeste 0 -- -- 97
2020-09-23 03:00:00 13.2 3 Este 5 Este 0 -- -- 95
2020-09-23 02:00:00 14 0 Calma 4 Sudoeste 0 -- -- 93
2020-09-23 01:00:00 13.9 0 Calma 5 Este 0 -- -- 94
2020-09-23 00:00:00 12.9 0 Calma 3 Nordeste 0 -- -- 93
2020-09-22 23:00:00 12.9 0 Calma 3 Sudoeste 0 -- -- 92
2020-09-22 22:00:00 12.6 2 Sudoeste 4 Sudoeste 0 -- -- 88
2020-09-22 21:00:00 15.1 3 Sur 5 Sudoeste 0 -- -- 80
2020-09-22 20:00:00 18.8 4 Sudoeste 12 Oeste 0 -- -- 64
2020-09-22 19:00:00 20.7 9 Oeste 18 Oeste 0 -- -- 54
2020-09-22 18:00:00 21 9 Oeste 24 Oeste 0 -- -- 53
2020-09-22 17:00:00 22.5 8 Oeste 22 Oeste 0 -- -- 50
2020-09-22 16:00:00 22 13 Sudoeste 24 Oeste 0 -- -- 52
2020-09-22 15:00:00 20.9 11 Oeste 26 Oeste 0 -- -- 57
2020-09-22 14:00:00 19.5 11 Oeste 21 Oeste 0 -- -- 65
2020-09-22 13:00:00 19.8 6 Oeste 18 Oeste 0 -- -- 65
2020-09-22 12:00:00 19.1 2 Sudoeste 7 Sudoeste 0 -- -- 71
2020-09-22 11:00:00 14.1 4 Oeste 8 Oeste 0 -- -- 86
2020-09-22 10:00:00 11.3 0 Calma 3 Oeste 0 -- -- 99
2020-09-22 09:00:00 9.9 0 Calma 0 Calma 0 -- -- 100
2020-09-22 08:00:00 8.7 0 Calma 2 Nordeste 0 -- -- 100
2020-09-22 07:00:00 8.3 0 Calma 5 Sudoeste 0 -- -- 100
2020-09-22 06:00:00 9.1 0 Calma 3 Sur 0 -- -- 100
2020-09-22 05:00:00 8.6 0 Calma 3 Sur 0 -- -- 100
2020-09-22 04:00:00 7.2 3 Este 5 Este 0 -- -- 100
2020-09-22 03:00:00 7.8 0 Calma 4 Este 0 -- -- 99
2020-09-22 02:00:00 8.5 0 Calma 8 Sudoeste 0 -- -- 99
2020-09-22 01:00:00 9.3 3 Este 7 Norte 0 -- -- 98
2020-09-22 00:00:00 9.2 0 Calma 4 Sudeste 0 -- -- 97
2020-09-21 23:00:00 10 0 Calma 5 Sudeste 0 -- -- 95
2020-09-21 22:00:00 11.3 3 Este 5 Este 0 -- -- 93
2020-09-21 21:00:00 13.7 0 Calma 4 Sur 0 -- -- 87
2020-09-21 20:00:00 20.4 0 Calma 10 Sudoeste 0 -- -- 66
2020-09-21 19:00:00 23.2 3 Sur 10 Oeste 0 -- -- 48
2020-09-21 18:00:00 22.9 5 Oeste 12 Sur 0 -- -- 47
2020-09-21 17:00:00 21.7 0 Calma 8 Nordeste 0 -- -- 52
2020-09-21 16:00:00 20.9 4 Oeste 8 Oeste 0 -- -- 55
2020-09-21 15:00:00 20.5 4 Nordeste 10 Noroeste 0.2 -- -- 58
2020-09-21 14:00:00 20.4 7 Oeste 17 Noroeste 0 -- -- 61
2020-09-21 13:00:00 18.3 9 Sudoeste 16 Sudoeste 0 -- -- 70
2020-09-21 12:00:00 17.4 4 Noroeste 11 Oeste 0 -- -- 81
2020-09-21 11:00:00 16.4 3 Norte 7 Oeste 0 -- -- 85
2020-09-21 10:00:00 14.8 4 Sudoeste 8 Sudoeste 0 -- -- 92
2020-09-21 09:00:00 13.2 0 Calma 6 Sudoeste 0 -- -- 100
2020-09-21 08:00:00 12.9 0 Calma 6 Oeste 0 -- -- 100
2020-09-21 07:00:00 13.3 2 Oeste 4 Oeste 0 -- -- 100
2020-09-21 06:00:00 13.3 0 Calma 2 Norte 0 -- -- 100
2020-09-21 05:00:00 12.9 2 Norte 4 Norte 0 -- -- 100
2020-09-21 04:00:00 11.6 0 Calma 4 Sudoeste 0 -- -- 100
2020-09-21 03:00:00 11.8 2 Oeste 6 Sudoeste 0 -- -- 100
2020-09-21 02:00:00 12.4 2 Sudoeste 4 Sudoeste 0 -- -- 99
2020-09-21 01:00:00 13.4 2 Oeste 7 Sudoeste 0 -- -- 99
2020-09-21 00:00:00 13.7 0 Calma 10 Sudoeste 0 -- -- 97
2020-09-20 23:00:00 14.8 4 Sudoeste 9 Sudoeste 0 -- -- 96
2020-09-20 22:00:00 14.9 4 Sudoeste 8 Oeste 0 -- -- 95
2020-09-20 21:00:00 15.8 8 Sudoeste 14 Sudoeste 0.2 -- -- 89
2020-09-20 20:00:00 17.7 8 Sudoeste 14 Sudoeste 0 -- -- 81
2020-09-20 19:00:00 18.5 7 Oeste 12 Oeste 0 -- -- 79
2020-09-20 18:00:00 18.2 6 Norte 24 Oeste 0 -- -- 82
2020-09-20 17:00:00 21.2 11 Oeste 22 Sudoeste 0 -- -- 73
2020-09-20 16:00:00 17.4 8 Oeste 23 Sudoeste 0.4 -- -- 93
2020-09-20 15:00:00 16.4 11 Sudoeste 29 Oeste 3.8 -- -- 97
2020-09-20 14:00:00 19.8 17 Sudoeste 25 Sudoeste 0 -- -- 73
2020-09-20 13:00:00 18.1 9 Sudoeste 20 Sudoeste 0.2 -- -- 84
2020-09-20 12:00:00 16.9 11 Sudoeste 19 Sudoeste 0 -- -- 90
2020-09-20 11:00:00 16.3 13 Sudoeste 22 Sudoeste 0 -- -- 95
2020-09-20 10:00:00 14.9 9 Sudoeste 14 Sudoeste 2.4 -- -- 100
2020-09-20 09:00:00 14.6 3 Sudoeste 8 Sudoeste 0.8 -- -- 100
2020-09-20 08:00:00 14.5 3 Oeste 14 Sudoeste 2 -- -- 99
2020-09-20 07:00:00 14.7 6 Sudoeste 13 Sudoeste 1 -- -- 97
2020-09-20 06:00:00 15 5 Sudoeste 10 Oeste 0 -- -- 95
2020-09-20 05:00:00 15 5 Sudoeste 16 Sudoeste 0 -- -- 95
2020-09-20 04:00:00 15.3 9 Sudoeste 19 Sudoeste 0 -- -- 93
2020-09-20 03:00:00 15.2 12 Sudoeste 22 Sudoeste 0 -- -- 92
2020-09-20 02:00:00 15.2 10 Sudoeste 19 Sudoeste 0 -- -- 92
2020-09-20 01:00:00 15.1 6 Sudoeste 19 Sudoeste 0 -- -- 92
2020-09-20 00:00:00 14.8 8 Sudoeste 12 Sudoeste 0 -- -- 92
2020-09-19 23:00:00 14.8 9 Oeste 20 Oeste 0 -- -- 92
2020-09-19 22:00:00 14.4 8 Sudoeste 17 Sudoeste 0 -- -- 92
2020-09-19 21:00:00 14 6 Sudoeste 15 Oeste 0 -- -- 92
2020-09-19 20:00:00 16.3 8 Sudoeste 14 Oeste 0 -- -- 85
2020-09-19 19:00:00 17.3 2 Sudoeste 14 Sudoeste 1 -- -- 91
2020-09-19 18:00:00 16.1 6 Sudoeste 18 Oeste 2.8 -- -- 94
2020-09-19 17:00:00 18.7 9 Oeste 27 Noroeste 0 -- -- 75
2020-09-19 16:00:00 18.3 12 Oeste 22 Sudoeste 0 -- -- 79
2020-09-19 15:00:00 16.8 11 Oeste 27 Oeste 0 -- -- 88
2020-09-19 14:00:00 17.8 19 Oeste 32 Oeste 0 -- -- 80
2020-09-19 13:00:00 17.7 18 Oeste 33 Oeste 0 -- -- 83
2020-09-19 12:00:00 15.7 19 Oeste 37 Sudoeste 0.4 -- -- 93
2020-09-19 11:00:00 15.1 22 Sudoeste 50 Sudoeste 0.2 -- -- 90
2020-09-19 10:00:00 15.1 31 Sudoeste 53 Sur 0 -- -- 88
2020-09-19 09:00:00 14.2 21 Sudoeste 40 Sudoeste 1.2 -- -- 93
2020-09-19 08:00:00 13.4 19 Sur 34 Sur 3 -- -- 97
2020-09-19 07:00:00 13.4 13 Sur 24 Sur 1.4 -- -- 94
2020-09-19 06:00:00 14.1 13 Sur 31 Sudoeste 0.2 -- -- 89
2020-09-19 05:00:00 12.9 3 Nordeste 12 Nordeste 0 -- -- 99
2020-09-19 04:00:00 13.2 4 Nordeste 8 Nordeste 0 -- -- 98
2020-09-19 03:00:00 13.3 0 Calma 8 Nordeste 0 -- -- 97
2020-09-19 02:00:00 13.3 2 Nordeste 15 Sur 0.6 -- -- 94
2020-09-19 01:00:00 14.1 13 Sur 35 Sur 0 -- -- 88
2020-09-19 00:00:00 13.6 4 Sudeste 11 Sur 0 -- -- 85
2020-09-18 23:00:00 14.3 5 Nordeste 10 Este 0 -- -- 81
2020-09-18 22:00:00 14.5 4 Este 21 Sur 0 -- -- 81
2020-09-18 21:00:00 15.1 8 Sur 28 Sudeste 0 -- -- 79
2020-09-18 20:00:00 15.4 19 Sur 44 Sur 0.2 -- -- 80
2020-09-18 19:00:00 17.7 18 Sur 48 Sur 0 -- -- 69
2020-09-18 18:00:00 21.9 21 Sur 33 Sur 0 -- -- 49
2020-09-18 17:00:00 22.9 13 Sur 26 Sudoeste 0 -- -- 47
2020-09-18 16:00:00 22.7 11 Sur 29 Sudoeste 0 -- -- 51
2020-09-18 15:00:00 23.5 11 Sudoeste 32 Sudoeste 0 -- -- 52
2020-09-18 14:00:00 21.8 15 Sur 28 Sur 0 -- -- 60
2020-09-18 13:00:00 20.4 15 Sur 29 Sur 0 -- -- 67
2020-09-18 12:00:00 18.9 8 Sudeste 16 Sur 0 -- -- 76
2020-09-18 11:00:00 14.9 4 Nordeste 15 Este 0 -- -- 96
2020-09-18 10:00:00 13.7 5 Nordeste 24 Sur 1 -- -- 98
2020-09-18 09:00:00 13.4 4 Nordeste 19 Oeste 0.8 -- -- 97
2020-09-18 08:00:00 14.1 13 Oeste 22 Sudoeste 0.2 -- -- 95
2020-09-18 07:00:00 13.9 4 Nordeste 28 Sudoeste 3 -- -- 99
2020-09-18 06:00:00 15.2 16 Sur 32 Sudoeste 1.8 -- -- 95
2020-09-18 05:00:00 15.1 3 Este 9 Nordeste 1.2 -- -- 98
2020-09-18 04:00:00 15.1 5 Nordeste 10 Nordeste 0 -- -- 97
2020-09-18 03:00:00 15.1 6 Nordeste 12 Este 0 -- -- 98
2020-09-18 02:00:00 14.9 6 Nordeste 16 Nordeste 0 -- -- 96
2020-09-18 01:00:00 14.9 8 Sudeste 32 Sur 1 -- -- 93
2020-09-18 00:00:00 17.6 16 Sur 28 Sur 0 -- -- 71
2020-09-17 23:00:00 16.7 23 Sur 66 Sur 0.8 -- -- 77
2020-09-17 22:00:00 22.9 14 Sur 23 Sur 0 -- -- 54
2020-09-17 21:00:00 23 6 Sudeste 21 Sur 0 -- -- 54
2020-09-17 20:00:00 24.1 15 Sur 23 Sur 0 -- -- 51
2020-09-17 19:00:00 25.1 20 Sur 36 Sur 0 -- -- 49
2020-09-17 18:00:00 26.5 18 Sur 36 Sudoeste 0 -- -- 44
2020-09-17 17:00:00 27.9 24 Sur 36 Sudoeste 0 -- -- 37
2020-09-17 16:00:00 27.8 17 Sur 35 Sur 0 -- -- 39
2020-09-17 15:00:00 26.8 18 Sur 39 Sudoeste 0 -- -- 43
2020-09-17 14:00:00 26 19 Sur 34 Sudoeste 0 -- -- 48
2020-09-17 13:00:00 25.3 14 Sur 28 Sur 0 -- -- 50
2020-09-17 12:00:00 25.4 11 Sudeste 22 Sur 0 -- -- 51
2020-09-17 11:00:00 20.1 4 Norte 8 Este 0 -- -- 74
2020-09-17 10:00:00 18.1 3 Noroeste 7 Norte 0 -- -- 81
2020-09-17 09:00:00 17.2 4 Nordeste 6 Nordeste 0 -- -- 84
2020-09-17 08:00:00 16.5 0 Calma 6 Este 0 -- -- 85
2020-09-17 07:00:00 16.8 3 Este 9 Este 0 -- -- 85
2020-09-17 06:00:00 17 3 Este 10 Nordeste 0 -- -- 83
2020-09-17 05:00:00 17.1 5 Nordeste 10 Este 0 -- -- 81
2020-09-17 04:00:00 17.4 4 Nordeste 14 Sudoeste 0 -- -- 82
2020-09-17 03:00:00 17.3 4 Este 11 Norte 0 -- -- 84
2020-09-17 02:00:00 19.4 4 Noroeste 21 Sur 0 -- -- 69
2020-09-17 01:00:00 18.5 4 Este 18 Sudoeste 0 -- -- 62
2020-09-17 00:00:00 17.5 2 Este 7 Este 0 -- -- 65
2020-09-16 23:00:00 18.3 3 Este 8 Este 0 -- -- 60
2020-09-16 22:00:00 20.1 4 Este 11 Sur 0 -- -- 56
2020-09-16 21:00:00 25.2 9 Sur 17 Sur 0 -- -- 39
2020-09-16 20:00:00 26.1 0 Calma 7 Sur 0 -- -- 47
2020-09-16 19:00:00 29.6 5 Este 12 Este 0 -- -- 32
2020-09-16 18:00:00 30.4 6 Sudeste 17 Nordeste 0 -- -- 32
2020-09-16 17:00:00 29.2 6 Nordeste 28 Este 0 -- -- 34
2020-09-16 16:00:00 30.6 9 Sudoeste 20 Sudeste 0 -- -- 32
2020-09-16 15:00:00 30.6 10 Norte 23 Sudeste 0 -- -- 31
2020-09-16 14:00:00 28.1 6 Norte 17 Norte 0 -- -- 38
2020-09-16 13:00:00 27.5 6 Nordeste 17 Nordeste 0 -- -- 41
2020-09-16 12:00:00 24.5 6 Nordeste 15 Nordeste 0 -- -- 50
2020-09-16 11:00:00 20.1 7 Este 12 Nordeste 0 -- -- 66
2020-09-16 10:00:00 14.6 4 Este 10 Nordeste 0 -- -- 98
2020-09-16 09:00:00 10.9 0 Calma 4 Nordeste 0 -- -- 100
2020-09-16 08:00:00 9.1 3 Este 6 Este 0 -- -- 100
2020-09-16 07:00:00 9.3 2 Este 4 Sur 0 -- -- 99
2020-09-16 06:00:00 10.2 0 Calma 4 Sudoeste 0 -- -- 99
2020-09-16 05:00:00 10.7 0 Calma 5 Nordeste 0 -- -- 98
2020-09-16 04:00:00 11.3 0 Calma 6 Este 0 -- -- 98
2020-09-16 03:00:00 11.6 3 Este 5 Este 0 -- -- 96
2020-09-16 02:00:00 12.6 0 Calma 4 Sudeste 0 -- -- 94
2020-09-16 01:00:00 13.9 3 Este 6 Sudoeste 0 -- -- 91
2020-09-16 00:00:00 15.4 4 Sudoeste 10 Oeste 0 -- -- 88
2020-09-15 23:00:00 16 2 Nordeste 5 Este 0 -- -- 83
2020-09-15 22:00:00 17.4 3 Este 6 Este 0 -- -- 75
2020-09-15 21:00:00 20 2 Este 6 Sudeste 0 -- -- 69
2020-09-15 20:00:00 26.3 2 Noroeste 11 Oeste 0 -- -- 48
2020-09-15 19:00:00 28 5 Noroeste 15 Noroeste 0 -- -- 38
2020-09-15 18:00:00 28 9 Oeste 24 Sudoeste 0 -- -- 39
2020-09-15 17:00:00 28 15 Oeste 26 Sudoeste 0 -- -- 37
2020-09-15 16:00:00 28.1 8 Sudoeste 24 Sudoeste 0 -- -- 41
2020-09-15 15:00:00 25.9 10 Sudoeste 32 Sur 0 -- -- 51
2020-09-15 14:00:00 25.2 9 Noroeste 25 Oeste 0 -- -- 54
2020-09-15 13:00:00 24.6 6 Oeste 17 Sudoeste 0 -- -- 60
2020-09-15 12:00:00 22.8 5 Oeste 11 Oeste 0 -- -- 68
2020-09-15 11:00:00 19.4 0 Calma 5 Norte 0 -- -- 90
2020-09-15 10:00:00 16 0 Calma 3 Nordeste 0 -- -- 99
2020-09-15 09:00:00 12.7 0 Calma 5 Nordeste 0 -- -- 100
2020-09-15 08:00:00 11.5 2 Este 4 Este 0 -- -- 100
2020-09-15 07:00:00 12.4 0 Calma 5 Este 0 -- -- 100
2020-09-15 06:00:00 13.6 0 Calma 8 Sudoeste 0 -- -- 99
2020-09-15 05:00:00 14.6 0 Calma 9 Nordeste 0 -- -- 99
2020-09-15 04:00:00 14.9 6 Nordeste 15 Este 0.2 -- -- 98
2020-09-15 03:00:00 15.2 9 Este 16 Oeste 0.8 -- -- 98
2020-09-15 02:00:00 15.3 3 Este 14 Sur 0 -- -- 98
2020-09-15 01:00:00 15.1 8 Este 23 Sudoeste 1.8 -- -- 96
2020-09-15 00:00:00 16.3 13 Oeste 51 Sudoeste 1.8 -- -- 85
2020-09-14 23:00:00 18.7 5 Este 6 Este 0 -- -- 61
2020-09-14 22:00:00 19 3 Oeste 8 Nordeste 0 -- -- 65
2020-09-14 21:00:00 22.2 4 Este 33 Oeste 0 -- -- 54
2020-09-14 20:00:00 27 9 Sur 19 Sudeste 0 -- -- 37
2020-09-14 19:00:00 28.8 8 Sudeste 25 Sur 0 -- -- 33
2020-09-14 18:00:00 30.5 13 Sudoeste 23 Sudoeste 0 -- -- 31
2020-09-14 17:00:00 30.9 15 Sur 30 Sur 0 -- -- 31
2020-09-14 16:00:00 29.5 13 Sudoeste 29 Sur 0 -- -- 33
2020-09-14 15:00:00 29.1 11 Sur 24 Sur 0 -- -- 34
2020-09-14 14:00:00 27 9 Sudoeste 16 Sudoeste 0 -- -- 38
2020-09-14 13:00:00 26.3 7 Sur 13 Sur 0 -- -- 39
2020-09-14 12:00:00 25.9 5 Nordeste 10 Norte 0 -- -- 42
2020-09-14 11:00:00 23.9 6 Nordeste 12 Norte 0 -- -- 47
2020-09-14 10:00:00 20.6 6 Este 12 Nordeste 0 -- -- 53
2020-09-14 09:00:00 15 4 Este 12 Este 0 -- -- 67
2020-09-14 08:00:00 11.2 4 Este 8 Nordeste 0 -- -- 76
2020-09-14 07:00:00 12.2 0 Calma 8 Este 0 -- -- 73
2020-09-14 06:00:00 14.1 6 Nordeste 12 Nordeste 0 -- -- 64
2020-09-14 05:00:00 14.8 5 Este 12 Nordeste 0 -- -- 60
2020-09-14 04:00:00 15.1 4 Este 10 Nordeste 0 -- -- 59
2020-09-14 03:00:00 16.9 6 Nordeste 12 Este 0 -- -- 52
2020-09-14 02:00:00 17.4 4 Nordeste 10 Norte 0 -- -- 52
2020-09-14 01:00:00 17.5 0 Calma 6 Nordeste 0 -- -- 50
2020-09-14 00:00:00 21.3 3 Nordeste 22 Sur 0 -- -- 41
2020-09-13 23:00:00 25.7 14 Sur 27 Sur 0 -- -- 33
2020-09-13 22:00:00 26.2 13 Sur 23 Sur 0 -- -- 32
2020-09-13 21:00:00 27.5 11 Sur 20 Sur 0 -- -- 30
2020-09-13 20:00:00 30.8 8 Sur 24 Sur 0 -- -- 27
2020-09-13 19:00:00 33.9 8 Sur 19 Sur 0 -- -- 23
2020-09-13 18:00:00 35.2 4 Oeste 19 Sur 0 -- -- 23
2020-09-13 17:00:00 33.9 10 Sudoeste 22 Sudoeste 0 -- -- 24
2020-09-13 16:00:00 31.5 13 Oeste 23 Sudoeste 0 -- -- 27
2020-09-13 15:00:00 32.5 18 Sudoeste 27 Oeste 0 -- -- 25
2020-09-13 14:00:00 32.9 13 Sudoeste 27 Sudoeste 0 -- -- 26
2020-09-13 13:00:00 31.1 4 Norte 14 Nordeste 0 -- -- 31
2020-09-13 12:00:00 27.3 5 Norte 12 Nordeste 0 -- -- 38
2020-09-13 11:00:00 22.5 5 Nordeste 11 Nordeste 0 -- -- 46
2020-09-13 10:00:00 18.8 5 Este 10 Este 0 -- -- 54
2020-09-13 09:00:00 11.8 0 Calma 5 Nordeste 0 -- -- 79
2020-09-13 08:00:00 9.9 2 Nordeste 7 Este 0 -- -- 82
2020-09-13 07:00:00 10.5 0 Calma 6 Nordeste 0 -- -- 79
2020-09-13 06:00:00 11.1 0 Calma 7 Este 0 -- -- 74
2020-09-13 05:00:00 12.1 3 Este 6 Nordeste 0 -- -- 70
2020-09-13 04:00:00 12.5 3 Nordeste 6 Nordeste 0 -- -- 67
2020-09-13 03:00:00 12.6 2 Este 8 Nordeste 0 -- -- 57
2020-09-13 02:00:00 12.2 0 Calma 7 Nordeste 0 -- -- 58
2020-09-13 01:00:00 14 3 Nordeste 8 Este 0 -- -- 46
2020-09-13 00:00:00 15.9 4 Nordeste 8 Nordeste 0 -- -- 41
2020-09-12 23:00:00 20.7 6 Nordeste 22 Nordeste 0 -- -- 32
2020-09-12 22:00:00 23.5 11 Nordeste 29 Nordeste 0 -- -- 26
2020-09-12 21:00:00 21.6 5 Este 13 Nordeste 0 -- -- 26
2020-09-12 20:00:00 27.8 8 Nordeste 22 Norte 0 -- -- 19
2020-09-12 19:00:00 33.9 4 Nordeste 21 Este 0 -- -- 16
2020-09-12 18:00:00 33.4 7 Sudeste 23 Sudeste 0 -- -- 16
2020-09-12 17:00:00 32.2 6 Noroeste 18 Norte 0 -- -- 18
2020-09-12 16:00:00 33.2 9 Nordeste 22 Norte 0 -- -- 18
2020-09-12 15:00:00 32.3 8 Nordeste 26 Este 0 -- -- 19
2020-09-12 14:00:00 32.4 9 Este 30 Este 0 -- -- 21
2020-09-12 13:00:00 30.3 11 Nordeste 26 Nordeste 0 -- -- 24
2020-09-12 12:00:00 26.7 8 Nordeste 15 Norte 0 -- -- 38
2020-09-12 11:00:00 22.5 10 Nordeste 20 Este 0 -- -- 48
2020-09-12 10:00:00 17.7 6 Nordeste 15 Norte 0 -- -- 60
2020-09-12 09:00:00 12.1 3 Nordeste 10 Este 0 -- -- 74
2020-09-12 08:00:00 8.4 5 Este 9 Nordeste 0 -- -- 86
2020-09-12 07:00:00 8.4 4 Nordeste 7 Este 0 -- -- 83
2020-09-12 06:00:00 9.1 3 Este 8 Nordeste 0 -- -- 79
2020-09-12 05:00:00 9.5 3 Este 9 Este 0 -- -- 79
2020-09-12 04:00:00 10.1 2 Este 4 Este 0 -- -- 75
2020-09-12 03:00:00 10.8 0 Calma 4 Este 0 -- -- 71
2020-09-12 02:00:00 12.2 0 Calma 6 Nordeste 0 -- -- 66
2020-09-12 01:00:00 13.4 3 Nordeste 6 Nordeste 0 -- -- 59
2020-09-12 00:00:00 14.6 4 Nordeste 8 Este 0 -- -- 51
2020-09-11 23:00:00 14.7 5 Nordeste 7 Este 0 -- -- 47
2020-09-11 22:00:00 16.5 4 Nordeste 6 Nordeste 0 -- -- 43
2020-09-11 21:00:00 20.4 4 Este 17 Este 0 -- -- 37
2020-09-11 20:00:00 28.7 4 Nordeste 15 Nordeste 0 -- -- 27
2020-09-11 19:00:00 30.6 6 Norte 15 Norte 0 -- -- 26
2020-09-11 18:00:00 30.9 7 Norte 21 Norte 0 -- -- 25
2020-09-11 17:00:00 31.1 8 Oeste 20 Noroeste 0 -- -- 27
2020-09-11 16:00:00 31 6 Oeste 20 Nordeste 0 -- -- 27
2020-09-11 15:00:00 29.8 8 Norte 20 Norte 0 -- -- 29
2020-09-11 14:00:00 29 8 Noroeste 18 Noroeste 0 -- -- 31
2020-09-11 13:00:00 28.4 5 Norte 15 Norte 0 -- -- 29
2020-09-11 12:00:00 26.3 5 Nordeste 13 Este 0 -- -- 36
2020-09-11 11:00:00 21.1 5 Nordeste 15 Este 0 -- -- 48
2020-09-11 10:00:00 16.8 6 Nordeste 13 Este 0 -- -- 63
2020-09-11 09:00:00 9.8 0 Calma 5 Este 0 -- -- 87
2020-09-11 08:00:00 8.3 2 Este 6 Este 0 -- -- 88
2020-09-11 07:00:00 8.6 4 Este 8 Este 0 -- -- 87
2020-09-11 06:00:00 9 4 Este 7 Este 0 -- -- 86
2020-09-11 05:00:00 9.4 0 Calma 5 Este 0 -- -- 83
2020-09-11 04:00:00 10.1 0 Calma 3 Este 0 -- -- 79
2020-09-11 03:00:00 12.5 0 Calma 10 Este 0 -- -- 70
2020-09-11 02:00:00 13.9 4 Nordeste 13 Nordeste 0 -- -- 64
2020-09-11 01:00:00 15.4 7 Nordeste 12 Este 0 -- -- 59
2020-09-11 00:00:00 14 5 Nordeste 8 Nordeste 0 -- -- 61
2020-09-10 23:00:00 15.2 4 Nordeste 7 Nordeste 0 -- -- 54
2020-09-10 22:00:00 16.9 2 Nordeste 4 Sudeste 0 -- -- 49
2020-09-10 21:00:00 21 4 Sudeste 10 Norte 0 -- -- 40
2020-09-10 20:00:00 28 4 Nordeste 14 Noroeste 0 -- -- 29
2020-09-10 19:00:00 29.6 8 Norte 18 Este 0 -- -- 26
2020-09-10 18:00:00 30.3 9 Norte 21 Norte 0 -- -- 26
2020-09-10 17:00:00 30.5 6 Oeste 21 Nordeste 0 -- -- 26
2020-09-10 16:00:00 30.1 7 Norte 17 Este 0 -- -- 28
2020-09-10 15:00:00 29.4 5 Este 18 Nordeste 0 -- -- 29
2020-09-10 14:00:00 28.1 6 Nordeste 19 Nordeste 0 -- -- 33
2020-09-10 13:00:00 26.8 6 Norte 15 Noroeste 0 -- -- 37
2020-09-10 12:00:00 24.4 5 Nordeste 13 Nordeste 0 -- -- 43
2020-09-10 11:00:00 20.3 5 Norte 9 Nordeste 0 -- -- 54
2020-09-10 10:00:00 16.2 3 Norte 5 Nordeste 0 -- -- 68
2020-09-10 09:00:00 10.4 2 Sudoeste 5 Este 0 -- -- 93
2020-09-10 08:00:00 8.3 3 Este 5 Este 0 -- -- 96
2020-09-10 07:00:00 8.1 0 Calma 4 Este 0 -- -- 94
2020-09-10 06:00:00 9.3 0 Calma 3 Nordeste 0 -- -- 92
2020-09-10 05:00:00 10.2 0 Calma 5 Nordeste 0 -- -- 87
2020-09-10 04:00:00 12.2 2 Nordeste 6 Nordeste 0 -- -- 82
2020-09-10 03:00:00 14 5 Este 14 Este 0 -- -- 75
2020-09-10 02:00:00 15.3 6 Este 13 Nordeste 0 -- -- 68
2020-09-10 01:00:00 16.3 6 Nordeste 14 Nordeste 0 -- -- 63
2020-09-10 00:00:00 19.7 8 Nordeste 25 Este 0 -- -- 52
2020-09-09 23:00:00 20.6 10 Este 19 Nordeste 0 -- -- 46
2020-09-09 22:00:00 17.7 3 Este 10 Este 0 -- -- 44
2020-09-09 21:00:00 21.7 3 Nordeste 12 Nordeste 0 -- -- 35
2020-09-09 20:00:00 28 4 Norte 14 Norte 0 -- -- 28
2020-09-09 19:00:00 29.5 7 Norte 15 Nordeste 0 -- -- 26
2020-09-09 18:00:00 29.9 8 Norte 16 Este 0 -- -- 25
2020-09-09 17:00:00 29.8 6 Sur 17 Este 0 -- -- 24
2020-09-09 16:00:00 29.5 6 Nordeste 16 Noroeste 0 -- -- 24
2020-09-09 15:00:00 28.2 10 Oeste 17 Oeste 0 -- -- 25
2020-09-09 14:00:00 27.4 5 Norte 19 Nordeste 0 -- -- 28
2020-09-09 13:00:00 26.3 4 Noroeste 14 Oeste 0 -- -- 32
2020-09-09 12:00:00 24 4 Norte 9 Norte 0 -- -- 37
2020-09-09 11:00:00 19.8 5 Nordeste 11 Norte 0 -- -- 43
2020-09-09 10:00:00 15.4 4 Nordeste 12 Nordeste 0 -- -- 52
2020-09-09 09:00:00 8.1 3 Este 9 Este 0 -- -- 80
2020-09-09 08:00:00 5.3 4 Nordeste 6 Nordeste 0 -- -- 84
2020-09-09 07:00:00 5.6 4 Este 5 Este 0 -- -- 80
2020-09-09 06:00:00 6.1 2 Nordeste 6 Nordeste 0 -- -- 77
2020-09-09 05:00:00 6.7 0 Calma 8 Este 0 -- -- 71
2020-09-09 04:00:00 7.6 4 Este 6 Nordeste 0 -- -- 66
2020-09-09 03:00:00 8.3 2 Nordeste 6 Este 0 -- -- 63
2020-09-09 02:00:00 9.8 0 Calma 8 Nordeste 0 -- -- 55
2020-09-09 01:00:00 11 3 Este 9 Este 0 -- -- 51
2020-09-09 00:00:00 13 7 Este 12 Norte 0 -- -- 45
2020-09-08 23:00:00 14.2 5 Nordeste 12 Nordeste 0 -- -- 42
2020-09-08 22:00:00 15.9 6 Nordeste 10 Norte 0 -- -- 39
2020-09-08 21:00:00 20.3 4 Nordeste 19 Nordeste 0 -- -- 32
2020-09-08 20:00:00 26.9 10 Este 25 Este 0 -- -- 24
2020-09-08 19:00:00 29 9 Nordeste 27 Este 0 -- -- 22
2020-09-08 18:00:00 29.6 12 Nordeste 28 Este 0 -- -- 22
2020-09-08 17:00:00 29 13 Nordeste 32 Este 0 -- -- 22
2020-09-08 16:00:00 29.2 9 Nordeste 27 Este 0 -- -- 22
2020-09-08 15:00:00 27.2 13 Este 30 Este 0 -- -- 25
2020-09-08 14:00:00 24.8 11 Nordeste 28 Nordeste 0 -- -- 29
2020-09-08 13:00:00 23.4 10 Nordeste 22 Nordeste 0 -- -- 32
2020-09-08 12:00:00 20.7 10 Este 28 Nordeste 0 -- -- 40
2020-09-08 11:00:00 17.2 12 Este 26 Este 0 -- -- 50
2020-09-08 10:00:00 13.6 7 Este 15 Este 0 -- -- 63
2020-09-08 09:00:00 7.4 4 Este 9 Nordeste 0 -- -- 93
2020-09-08 08:00:00 5.4 3 Nordeste 9 Nordeste 0 -- -- 93
2020-09-08 07:00:00 6.5 5 Este 9 Este 0 -- -- 93
2020-09-08 06:00:00 8 2 Sudeste 13 Este 0 -- -- 88
2020-09-08 05:00:00 8.7 4 Este 17 Nordeste 0 -- -- 85
2020-09-08 04:00:00 9.7 5 Nordeste 20 Este 0 -- -- 80
2020-09-08 03:00:00 10.8 10 Nordeste 25 Nordeste 0 -- -- 74
2020-09-08 02:00:00 11.1 8 Este 27 Nordeste 0 -- -- 71
2020-09-08 01:00:00 12.2 14 Nordeste 29 Este 0 -- -- 65
2020-09-08 00:00:00 12.8 10 Nordeste 29 Nordeste 0 -- -- 59
2020-09-07 23:00:00 14.1 9 Nordeste 23 Nordeste 0 -- -- 55
2020-09-07 22:00:00 15.7 8 Nordeste 30 Nordeste 0 -- -- 51
2020-09-07 21:00:00 17.2 10 Nordeste 30 Este 0 -- -- 47
2020-09-07 20:00:00 21.4 13 Nordeste 37 Nordeste 0 -- -- 38
2020-09-07 19:00:00 23.1 15 Nordeste 36 Nordeste 0 -- -- 35
2020-09-07 18:00:00 24.2 15 Nordeste 32 Nordeste 0 -- -- 32
2020-09-07 17:00:00 24 15 Nordeste 33 Nordeste 0 -- -- 33
2020-09-07 16:00:00 23.5 15 Nordeste 36 Nordeste 0 -- -- 36
2020-09-07 15:00:00 22.7 15 Nordeste 35 Nordeste 0 -- -- 37
2020-09-07 14:00:00 21.6 17 Nordeste 37 Este 0 -- -- 40
2020-09-07 13:00:00 20.7 15 Nordeste 35 Nordeste 0 -- -- 44
2020-09-07 12:00:00 19.7 16 Nordeste 39 Nordeste 0 -- -- 48
2020-09-07 11:00:00 16.5 18 Nordeste 39 Nordeste 0 -- -- 57
2020-09-07 10:00:00 14.9 12 Nordeste 31 Nordeste 0 -- -- 62
2020-09-07 09:00:00 12.4 6 Nordeste 15 Nordeste 0 -- -- 79
2020-09-07 08:00:00 9.9 4 Nordeste 14 Este 0 -- -- 89
2020-09-07 07:00:00 10.2 5 Este 17 Nordeste 0 -- -- 85
2020-09-07 06:00:00 11.1 9 Nordeste 19 Nordeste 0 -- -- 81
2020-09-07 05:00:00 11.3 9 Nordeste 20 Nordeste 0 -- -- 78
2020-09-07 04:00:00 11.7 9 Este 22 Nordeste 0 -- -- 76
2020-09-07 03:00:00 12.7 12 Nordeste 30 Este 0 -- -- 71
2020-09-07 02:00:00 13.1 14 Nordeste 31 Nordeste 0 -- -- 74
2020-09-07 01:00:00 13.7 13 Nordeste 34 Este 0 -- -- 69
2020-09-07 00:00:00 14.4 15 Nordeste 35 Este 0 -- -- 64
2020-09-06 23:00:00 14.8 16 Nordeste 32 Nordeste 0 -- -- 61
2020-09-06 22:00:00 15.8 11 Nordeste 33 Nordeste 0 -- -- 58
2020-09-06 21:00:00 17.5 13 Nordeste 31 Nordeste 0 -- -- 53
2020-09-06 20:00:00 22.4 13 Nordeste 27 Nordeste 0 -- -- 40
2020-09-06 19:00:00 25.2 14 Nordeste 30 Nordeste 0 -- -- 36
2020-09-06 18:00:00 25.8 13 Nordeste 27 Este 0 -- -- 39
2020-09-06 17:00:00 27.1 12 Nordeste 29 Este 0 -- -- 37
2020-09-06 16:00:00 26.8 12 Norte 24 Nordeste 0 -- -- 39
2020-09-06 15:00:00 27.6 13 Nordeste 25 Nordeste 0 -- -- 39
2020-09-06 14:00:00 26.6 10 Nordeste 23 Nordeste 0 -- -- 42
2020-09-06 13:00:00 24.8 10 Nordeste 25 Norte 0 -- -- 47
2020-09-06 12:00:00 24 9 Nordeste 21 Nordeste 0 -- -- 49
2020-09-06 11:00:00 20.5 11 Nordeste 23 Nordeste 0 -- -- 58
2020-09-06 10:00:00 17.6 8 Nordeste 21 Sudeste 0 -- -- 67
2020-09-06 09:00:00 14.5 7 Nordeste 16 Nordeste 0 -- -- 79
2020-09-06 08:00:00 13.1 5 Nordeste 21 Este 0 -- -- 85
2020-09-06 07:00:00 13.4 6 Nordeste 15 Nordeste 0 -- -- 84
2020-09-06 06:00:00 13.9 7 Este 19 Este 0 -- -- 83
2020-09-06 05:00:00 14.4 9 Nordeste 23 Nordeste 0 -- -- 81
2020-09-06 04:00:00 14.7 11 Nordeste 24 Este 0 -- -- 81
2020-09-06 03:00:00 15.2 9 Nordeste 24 Este 0 -- -- 80
2020-09-06 02:00:00 15.6 9 Nordeste 24 Este 0 -- -- 79
2020-09-06 01:00:00 16.2 8 Nordeste 26 Nordeste 0 -- -- 76
2020-09-06 00:00:00 16.9 14 Nordeste 24 Este 0 -- -- 72
2020-09-05 23:00:00 17.6 12 Nordeste 29 Nordeste 0 -- -- 71
2020-09-05 22:00:00 19.5 15 Nordeste 34 Nordeste 0 -- -- 64
2020-09-05 21:00:00 22.4 17 Nordeste 33 Nordeste 0 -- -- 53
2020-09-05 20:00:00 28 9 Este 29 Nordeste 0 -- -- 41
2020-09-05 19:00:00 30.6 13 Nordeste 32 Nordeste 0 -- -- 35
2020-09-05 18:00:00 32.5 12 Norte 27 Nordeste 0 -- -- 28
2020-09-05 17:00:00 33.2 12 Nordeste 26 Este 0 -- -- 28
2020-09-05 16:00:00 33.7 11 Nordeste 23 Nordeste 0 -- -- 25
2020-09-05 15:00:00 32.3 10 Nordeste 22 Este 0 -- -- 28
2020-09-05 14:00:00 32.5 8 Este 21 Nordeste 0 -- -- 28
2020-09-05 13:00:00 30.4 8 Este 19 Nordeste 0 -- -- 30
2020-09-05 12:00:00 27.1 7 Nordeste 20 Este 0 -- -- 35
2020-09-05 11:00:00 23.7 9 Este 15 Este 0 -- -- 39
2020-09-05 10:00:00 18 7 Nordeste 13 Este 0 -- -- 51
2020-09-05 09:00:00 12 2 Nordeste 7 Nordeste 0 -- -- 70
2020-09-05 08:00:00 8.9 3 Este 5 Este 0 -- -- 77
2020-09-05 07:00:00 9.1 3 Este 7 Este 0 -- -- 74
2020-09-05 06:00:00 9.6 4 Este 8 Este 0 -- -- 72
2020-09-05 05:00:00 9.8 3 Este 5 Este 0 -- -- 70
2020-09-05 04:00:00 10.9 0 Calma 5 Este 0 -- -- 66
2020-09-05 03:00:00 12 2 Nordeste 7 Este 0 -- -- 62
2020-09-05 02:00:00 12.9 0 Calma 8 Este 0 -- -- 59
2020-09-05 01:00:00 14.5 5 Este 11 Noroeste 0 -- -- 55
2020-09-05 00:00:00 15.4 0 Calma 4 Nordeste 0 -- -- 50
2020-09-04 23:00:00 17.6 0 Calma 9 Sudeste 0 -- -- 44
2020-09-04 22:00:00 20 4 Sudeste 11 Nordeste 0 -- -- 37
2020-09-04 21:00:00 24.2 3 Sur 8 Noroeste 0 -- -- 35
2020-09-04 20:00:00 32.2 5 Oeste 17 Oeste 0 -- -- 23
2020-09-04 19:00:00 33.1 13 Oeste 21 Oeste 0 -- -- 21
2020-09-04 18:00:00 34.4 8 Noroeste 21 Oeste 0 -- -- 20
2020-09-04 17:00:00 34.7 6 Norte 22 Oeste 0 -- -- 22
2020-09-04 16:00:00 34.4 6 Noroeste 19 Oeste 0 -- -- 21
2020-09-04 15:00:00 32.8 7 Noroeste 20 Oeste 0 -- -- 23
2020-09-04 14:00:00 32.7 8 Sudoeste 18 Oeste 0 -- -- 23
2020-09-04 13:00:00 31.4 3 Oeste 11 Norte 0 -- -- 28
2020-09-04 12:00:00 27.2 6 Nordeste 14 Nordeste 0 -- -- 34
2020-09-04 11:00:00 22.5 7 Nordeste 15 Nordeste 0 -- -- 39
2020-09-04 10:00:00 17.3 5 Nordeste 14 Nordeste 0 -- -- 46
2020-09-04 09:00:00 11.7 5 Nordeste 10 Este 0 -- -- 54
2020-09-04 08:00:00 7.9 3 Nordeste 8 Nordeste 0 -- -- 65
2020-09-04 07:00:00 9 4 Nordeste 12 Este 0 -- -- 60
2020-09-04 06:00:00 8.5 4 Nordeste 6 Nordeste 0 -- -- 61
2020-09-04 05:00:00 8.9 2 Nordeste 8 Este 0 -- -- 57
2020-09-04 04:00:00 9.6 3 Nordeste 9 Este 0 -- -- 55
2020-09-04 03:00:00 9.6 3 Este 6 Nordeste 0 -- -- 57
2020-09-04 02:00:00 10.5 2 Este 5 Este 0 -- -- 56
2020-09-04 01:00:00 10.9 3 Este 4 Este 0 -- -- 56
2020-09-04 00:00:00 12.6 0 Calma 6 Este 0 -- -- 53
2020-09-03 23:00:00 14.5 0 Calma 5 Este 0 -- -- 45
2020-09-03 22:00:00 17.1 3 Este 6 Sudeste 0 -- -- 44
2020-09-03 21:00:00 22.4 0 Calma 3 Sudeste 0 -- -- 32
2020-09-03 20:00:00 32.6 2 Noroeste 8 Nordeste 0 -- -- 21
2020-09-03 19:00:00 32.5 4 Norte 11 Oeste 0 -- -- 19
2020-09-03 18:00:00 31.8 7 Noroeste 18 Norte 0 -- -- 20
2020-09-03 17:00:00 31.4 9 Sudoeste 15 Sur 0 -- -- 22
2020-09-03 16:00:00 31.1 6 Sudoeste 16 Sudeste 0 -- -- 23
2020-09-03 15:00:00 29.8 6 Noroeste 13 Oeste 0 -- -- 27
2020-09-03 14:00:00 28.4 7 Oeste 14 Oeste 0 -- -- 29
2020-09-03 13:00:00 27.3 5 Norte 11 Norte 0 -- -- 31
2020-09-03 12:00:00 24.4 4 Nordeste 10 Norte 0 -- -- 29
2020-09-03 11:00:00 18.9 4 Norte 12 Noroeste 0 -- -- 49
2020-09-03 10:00:00 14.4 5 Nordeste 12 Nordeste 0 -- -- 61
2020-09-03 09:00:00 8.8 0 Calma 5 Nordeste 0 -- -- 85
2020-09-03 08:00:00 5.7 3 Este 6 Este 0 -- -- 91
2020-09-03 07:00:00 5.7 0 Calma 4 Nordeste 0 -- -- 88
2020-09-03 06:00:00 6.4 0 Calma 3 Este 0 -- -- 84
2020-09-03 05:00:00 7.2 3 Este 5 Este 0 -- -- 82
2020-09-03 04:00:00 8.3 0 Calma 6 Este 0 -- -- 81
2020-09-03 03:00:00 8.6 0 Calma 5 Sudeste 0 -- -- 79
2020-09-03 02:00:00 10 3 Este 5 Este 0 -- -- 75
2020-09-03 01:00:00 11.7 3 Nordeste 6 Nordeste 0 -- -- 69
2020-09-03 00:00:00 12.5 5 Nordeste 8 Nordeste 0 -- -- 66
2020-09-02 23:00:00 14 3 Este 6 Nordeste 0 -- -- 55
2020-09-02 22:00:00 16.4 4 Nordeste 6 Nordeste 0 -- -- 49
2020-09-02 21:00:00 22.1 5 Nordeste 14 Nordeste 0 -- -- 37
2020-09-02 20:00:00 27.5 6 Nordeste 14 Nordeste 0 -- -- 28
2020-09-02 19:00:00 28.5 8 Norte 17 Norte 0 -- -- 26
2020-09-02 18:00:00 28.7 9 Noroeste 21 Noroeste 0 -- -- 27
2020-09-02 17:00:00 28.2 12 Norte 22 Noroeste 0 -- -- 26
2020-09-02 16:00:00 28 7 Noroeste 16 Noroeste 0 -- -- 28
2020-09-02 15:00:00 27.1 5 Norte 19 Norte 0 -- -- 31
2020-09-02 14:00:00 25.8 8 Nordeste 19 Nordeste 0 -- -- 32
2020-09-02 13:00:00 24.5 8 Nordeste 20 Nordeste 0 -- -- 35
2020-09-02 12:00:00 22.8 9 Este 22 Este 0 -- -- 38
2020-09-02 11:00:00 19.8 8 Este 19 Nordeste 0 -- -- 46
2020-09-02 10:00:00 15.5 6 Nordeste 15 Este 0 -- -- 58
2020-09-02 09:00:00 10.6 5 Este 9 Este 0 -- -- 79
2020-09-02 08:00:00 7.5 0 Calma 8 Este 0 -- -- 89
2020-09-02 07:00:00 9 0 Calma 10 Este 0 -- -- 81
2020-09-02 06:00:00 11 5 Este 13 Este 0 -- -- 75
2020-09-02 05:00:00 11.5 5 Este 11 Nordeste 0 -- -- 72
2020-09-02 04:00:00 11.9 6 Este 14 Nordeste 0 -- -- 70
2020-09-02 03:00:00 13.4 7 Este 23 Nordeste 0 -- -- 66
2020-09-02 02:00:00 14.5 10 Nordeste 24 Este 0 -- -- 65
2020-09-02 01:00:00 15.3 9 Este 28 Este 0 -- -- 64
2020-09-02 00:00:00 16.6 10 Nordeste 31 Nordeste 0 -- -- 57
2020-09-01 23:00:00 18.4 17 Este 31 Este 0 -- -- 47
2020-09-01 22:00:00 19.7 10 Este 21 Sudeste 0 -- -- 40
2020-09-01 21:00:00 22 6 Nordeste 23 Este 0 -- -- 30
2020-09-01 20:00:00 26.2 8 Norte 16 Este 0 -- -- 27
2020-09-01 19:00:00 28.2 4 Norte 17 Norte 0 -- -- 23
2020-09-01 18:00:00 27.4 7 Nordeste 17 Norte 0 -- -- 23
2020-09-01 17:00:00 29.3 9 Nordeste 17 Norte 0 -- -- 21
2020-09-01 16:00:00 27.8 6 Sudoeste 19 Oeste 0 -- -- 23
2020-09-01 15:00:00 27.4 8 Noroeste 14 Noroeste 0 -- -- 22
2020-09-01 14:00:00 26.1 6 Noroeste 15 Norte 0 -- -- 25
2020-09-01 13:00:00 24.9 6 Norte 14 Norte 0 -- -- 26
2020-09-01 12:00:00 23 6 Norte 12 Nordeste 0 -- -- 32
2020-09-01 11:00:00 18.4 4 Norte 10 Nordeste 0 -- -- 45
2020-09-01 10:00:00 14.8 4 Nordeste 10 Nordeste 0 -- -- 53
2020-09-01 09:00:00 11.4 0 Calma 6 Este 0 -- -- 64
2020-09-01 08:00:00 10.8 3 Este 12 Nordeste 0 -- -- 64
2020-09-01 07:00:00 11 3 Norte 10 Este 0 -- -- 70
2020-09-01 06:00:00 10.8 0 Calma 9 Norte 0 -- -- 73
2020-09-01 05:00:00 11.1 3 Sudeste 10 Norte 0 -- -- 61
2020-09-01 04:00:00 10.2 0 Calma 5 Este 0 -- -- 62
2020-09-01 03:00:00 9.6 0 Calma 4 Nordeste 0 -- -- 64
2020-09-01 02:00:00 9.4 0 Calma 5 Nordeste 0 -- -- 62
2020-09-01 01:00:00 9.6 0 Calma 3 Este 0 -- -- 59
2020-09-01 00:00:00 10.9 4 Este 6 Este 0 -- -- 52
2020-08-31 23:00:00 12.7 2 Este 8 Sudeste 0 -- -- 48
2020-08-31 22:00:00 14.5 3 Este 7 Nordeste 0 -- -- 43
2020-08-31 21:00:00 16.7 0 Calma 6 Noroeste 0 -- -- 39
2020-08-31 20:00:00 24.3 5 Oeste 15 Noroeste 0 -- -- 24
2020-08-31 19:00:00 25 8 Norte 17 Norte 0 -- -- 23
2020-08-31 18:00:00 23.7 8 Oeste 17 Oeste 0 -- -- 26
2020-08-31 17:00:00 24.4 9 Oeste 21 Noroeste 0 -- -- 25
2020-08-31 16:00:00 24.4 11 Oeste 21 Oeste 0 -- -- 26
2020-08-31 15:00:00 23 6 Noroeste 17 Oeste 0 -- -- 30
2020-08-31 14:00:00 23.6 3 Sudeste 14 Oeste 0 -- -- 29
2020-08-31 13:00:00 20.9 5 Norte 15 Norte 0 -- -- 35
2020-08-31 12:00:00 19.7 4 Noroeste 9 Norte 0 -- -- 43
2020-08-31 11:00:00 14.8 3 Norte 10 Nordeste 0 -- -- 59
2020-08-31 10:00:00 10.1 5 Nordeste 11 Este 0 -- -- 76
2020-08-31 09:00:00 4.9 3 Este 6 Este 0 -- -- 100
2020-08-31 08:00:00 2.6 0 Calma 6 Este 0 -- -- 99
2020-08-31 07:00:00 2.6 3 Este 5 Nordeste 0 -- -- 99
2020-08-31 06:00:00 2.7 3 Este 4 Este 0 -- -- 98
2020-08-31 05:00:00 4 0 Calma 4 Este 0 -- -- 97
2020-08-31 04:00:00 4.8 3 Este 9 Nordeste 0 -- -- 96
2020-08-31 03:00:00 4.8 3 Este 5 Este 0 -- -- 93
2020-08-31 02:00:00 6.4 0 Calma 5 Sur 0 -- -- 88
2020-08-31 01:00:00 8.2 3 Nordeste 7 Nordeste 0 -- -- 83
2020-08-31 00:00:00 10.2 3 Nordeste 10 Este 0 -- -- 75
2020-08-30 23:00:00 12.7 5 Nordeste 22 Nordeste 0 -- -- 62
2020-08-30 22:00:00 14.3 9 Este 18 Este 0 -- -- 54
2020-08-30 21:00:00 15.9 7 Nordeste 19 Nordeste 0 -- -- 49
2020-08-30 20:00:00 20.3 8 Nordeste 17 Nordeste 0 -- -- 35
2020-08-30 19:00:00 21.4 7 Nordeste 21 Nordeste 0 -- -- 32
2020-08-30 18:00:00 20.8 10 Norte 20 Nordeste 0 -- -- 33
2020-08-30 17:00:00 21.5 7 Nordeste 19 Nordeste 0 -- -- 37
2020-08-30 16:00:00 19.9 6 Nordeste 19 Nordeste 0 -- -- 41
2020-08-30 15:00:00 19.5 7 Este 17 Este 0 -- -- 42
2020-08-30 14:00:00 16.7 4 Noroeste 13 Norte 0 -- -- 49
2020-08-30 13:00:00 15.6 5 Norte 13 Norte 0 -- -- 53
2020-08-30 12:00:00 14.5 3 Nordeste 10 Este 0 -- -- 60
2020-08-30 11:00:00 13.7 4 Norte 8 Noroeste 0 -- -- 66
2020-08-30 10:00:00 10 0 Calma 5 Sudoeste 0 -- -- 94
2020-08-30 09:00:00 5.1 0 Calma 3 Este 0 -- -- 100
2020-08-30 08:00:00 2.4 0 Calma -- -- 0 -- -- 100
2020-08-30 07:00:00 2.8 0 Calma -- -- 0 -- -- 100
2020-08-30 06:00:00 3 0 Calma 2 Sur 0 -- -- 99
2020-08-30 05:00:00 3.7 0 Calma 2 Sudeste 0 -- -- 98
2020-08-30 04:00:00 4.5 0 Calma 3 Este 0 -- -- 98
2020-08-30 03:00:00 5.7 0 Calma 2 Sur 0 -- -- 96
2020-08-30 02:00:00 6.7 0 Calma 3 Nordeste 0 -- -- 93
2020-08-30 01:00:00 7.6 2 Este 6 Este 0 -- -- 89
2020-08-30 00:00:00 9.6 3 Este 19 Este 0 -- -- 79
2020-08-29 23:00:00 11.3 8 Nordeste 22 Nordeste 0 -- -- 75
2020-08-29 22:00:00 12.7 6 Nordeste 19 Este 0 -- -- 70
2020-08-29 21:00:00 14.1 9 Nordeste 30 Nordeste 0 -- -- 68
2020-08-29 20:00:00 16.7 12 Norte 29 Norte 1.6 -- -- 62
2020-08-29 19:00:00 16.2 2 Noroeste 33 Noroeste 0.4 -- -- 76
2020-08-29 18:00:00 19.7 13 Norte 29 Noroeste 0 -- -- 42
2020-08-29 17:00:00 22.3 16 Norte 33 Norte 0 -- -- 35
2020-08-29 16:00:00 22.1 17 Noroeste 35 Norte 0 -- -- 34
2020-08-29 15:00:00 21.2 12 Noroeste 28 Noroeste 0 -- -- 37
2020-08-29 14:00:00 21.1 13 Noroeste 28 Norte 0 -- -- 39
2020-08-29 13:00:00 18.9 13 Noroeste 26 Noroeste 0 -- -- 43
2020-08-29 12:00:00 18.1 6 Norte 22 Oeste 0 -- -- 49
2020-08-29 11:00:00 15.3 5 Oeste 12 Noroeste 0 -- -- 58
2020-08-29 10:00:00 12.4 6 Sudoeste 11 Sudoeste 0 -- -- 69
2020-08-29 09:00:00 7.7 3 Sudoeste 6 Sudoeste 0 -- -- 96
2020-08-29 08:00:00 4.3 0 Calma 2 Este 0 -- -- 98
2020-08-29 07:00:00 4.8 0 Calma 4 Este 0 -- -- 96
2020-08-29 06:00:00 5.3 0 Calma 2 Sudeste 0 -- -- 94
2020-08-29 05:00:00 6.2 0 Calma 2 Sudeste 0 -- -- 93
2020-08-29 04:00:00 7.5 2 Sudeste 5 Sudeste 0 -- -- 89
2020-08-29 03:00:00 8.7 2 Este 5 Nordeste 0 -- -- 83
2020-08-29 02:00:00 10.7 2 Este 10 Nordeste 0 -- -- 77
2020-08-29 01:00:00 12.8 5 Nordeste 20 Nordeste 0 -- -- 70
2020-08-29 00:00:00 13.7 7 Nordeste 23 Nordeste 0 -- -- 69
2020-08-28 23:00:00 14.4 11 Nordeste 27 Nordeste 0 -- -- 67
2020-08-28 22:00:00 16.3 12 Nordeste 27 Nordeste 0 -- -- 65
2020-08-28 21:00:00 19.5 13 Nordeste 33 Oeste 0 -- -- 59
2020-08-28 20:00:00 25.3 13 Noroeste 28 Noroeste 0 -- -- 30
2020-08-28 19:00:00 27.1 15 Norte 31 Noroeste 0 -- -- 28
2020-08-28 18:00:00 28.2 18 Oeste 30 Oeste 0 -- -- 30
2020-08-28 17:00:00 28.2 12 Oeste 27 Oeste 0 -- -- 33
2020-08-28 16:00:00 27.7 14 Oeste 28 Oeste 0 -- -- 34
2020-08-28 15:00:00 26.7 9 Noroeste 28 Oeste 0 -- -- 39
2020-08-28 14:00:00 25.8 13 Oeste 27 Oeste 0 -- -- 41
2020-08-28 13:00:00 25.1 14 Oeste 28 Oeste 0 -- -- 41
2020-08-28 12:00:00 23.6 13 Oeste 22 Sudoeste 0 -- -- 50
2020-08-28 11:00:00 21.5 13 Oeste 25 Oeste 0 -- -- 62
2020-08-28 10:00:00 18 6 Sudoeste 15 Oeste 0 -- -- 79
2020-08-28 09:00:00 15.6 3 Sudoeste 5 Sur 0 -- -- 90
2020-08-28 08:00:00 14.6 4 Oeste 5 Oeste 0 -- -- 94
2020-08-28 07:00:00 14.4 0 Calma 5 Sur 0 -- -- 94
2020-08-28 06:00:00 14.3 0 Calma 4 Sudoeste 0 -- -- 94
2020-08-28 05:00:00 15.4 3 Sudoeste 5 Sudoeste 0 -- -- 89
2020-08-28 04:00:00 16.6 4 Sudoeste 6 Sur 0 -- -- 83
2020-08-28 03:00:00 17.7 0 Calma 6 Sudeste 0 -- -- 78
2020-08-28 02:00:00 18.2 0 Calma 3 Nordeste 0 -- -- 68
2020-08-28 01:00:00 21.6 3 Noroeste 12 Oeste 0 -- -- 56
2020-08-28 00:00:00 22.7 7 Sudoeste 17 Noroeste 0 -- -- 51
2020-08-27 23:00:00 20.9 2 Sur 9 Sudoeste 0 -- -- 45
2020-08-27 22:00:00 23.2 4 Sudeste 10 Nordeste 0 -- -- 38
2020-08-27 21:00:00 26.5 3 Sudoeste 15 Oeste 0 -- -- 35
2020-08-27 20:00:00 32.7 9 Oeste 16 Oeste 0 -- -- 28
2020-08-27 19:00:00 34 10 Oeste 23 Oeste 0 -- -- 26
2020-08-27 18:00:00 34.5 9 Oeste 20 Oeste 0 -- -- 28
2020-08-27 17:00:00 34.6 8 Noroeste 19 Oeste 0 -- -- 27
2020-08-27 16:00:00 33.9 7 Noroeste 23 Oeste 0 -- -- 27
2020-08-27 15:00:00 32.8 6 Oeste 20 Oeste 0 -- -- 33
2020-08-27 14:00:00 31.3 11 Oeste 22 Oeste 0 -- -- 37
2020-08-27 13:00:00 29.7 6 Oeste 14 Oeste 0 -- -- 44
2020-08-27 12:00:00 27.2 5 Oeste 13 Oeste 0 -- -- 51
2020-08-27 11:00:00 23.7 4 Oeste 9 Oeste 0 -- -- 50
2020-08-27 10:00:00 19.6 2 Oeste 6 Oeste 0 -- -- 54
2020-08-27 09:00:00 13.4 0 Calma 3 Sur 0 -- -- 78
2020-08-27 08:00:00 10.8 0 Calma 5 Este 0 -- -- 85
2020-08-27 07:00:00 10.5 2 Nordeste 5 Este 0 -- -- 81
2020-08-27 06:00:00 11.5 0 Calma 4 Sudoeste 0 -- -- 79
2020-08-27 05:00:00 11.9 3 Este 6 Este 0 -- -- 74
2020-08-27 04:00:00 12.8 0 Calma 7 Sudeste 0 -- -- 72
2020-08-27 03:00:00 14 3 Norte 12 Sur 0 -- -- 69
2020-08-27 02:00:00 14.2 2 Nordeste 5 Sur 0 -- -- 65
2020-08-27 01:00:00 15.7 3 Nordeste 8 Este 0 -- -- 60
2020-08-27 00:00:00 16.7 0 Calma 6 Sudeste 0 -- -- 55
2020-08-26 23:00:00 18.7 3 Sudeste 7 Este 0 -- -- 48
2020-08-26 22:00:00 21 2 Este 6 Sudeste 0 -- -- 42
2020-08-26 21:00:00 27.1 2 Sur 9 Noroeste 0 -- -- 33
2020-08-26 20:00:00 34 5 Oeste 17 Oeste 0 -- -- 24
2020-08-26 19:00:00 35 10 Oeste 20 Oeste 0 -- -- 22
2020-08-26 18:00:00 35.5 5 Oeste 22 Oeste 0 -- -- 22
2020-08-26 17:00:00 34.9 9 Noroeste 19 Oeste 0 -- -- 23
2020-08-26 16:00:00 34 11 Noroeste 19 Noroeste 0 -- -- 25
2020-08-26 15:00:00 33.5 7 Noroeste 18 Oeste 0 -- -- 26
2020-08-26 14:00:00 32.3 6 Oeste 11 Oeste 0 -- -- 32
2020-08-26 13:00:00 30.5 5 Sudoeste 9 Norte 0 -- -- 35
2020-08-26 12:00:00 27.7 4 Sudoeste 9 Norte 0 -- -- 40
2020-08-26 11:00:00 23.1 4 Nordeste 9 Norte 0 -- -- 48
2020-08-26 10:00:00 18.6 6 Nordeste 10 Nordeste 0 -- -- 64
2020-08-26 09:00:00 12.7 2 Nordeste 5 Norte 0 -- -- 91
2020-08-26 08:00:00 10.1 2 Sudoeste 4 Este 0 -- -- 95
2020-08-26 07:00:00 10.1 0 Calma 5 Sudeste 0 -- -- 95
2020-08-26 06:00:00 10.7 0 Calma 5 Este 0 -- -- 91
2020-08-26 05:00:00 11.6 0 Calma 5 Este 0 -- -- 89
2020-08-26 04:00:00 12.6 0 Calma 4 Este 0 -- -- 85
2020-08-26 03:00:00 14 2 Este 6 Sur 0 -- -- 79
2020-08-26 02:00:00 15.8 4 Sur 9 Este 0 -- -- 73
2020-08-26 01:00:00 16.8 5 Este 8 Este 0 -- -- 61
2020-08-26 00:00:00 17.8 5 Este 14 Este 0 -- -- 48